createdAt,value
2017-12-27T00:00:27.286Z,96.31
2017-12-27T00:01:27.259Z,97.06
2017-12-27T00:02:27.233Z,96.31
2017-12-27T00:03:27.209Z,96.50
2017-12-27T00:04:27.184Z,96.78
2017-12-27T00:05:27.156Z,96.59
2017-12-27T00:06:27.130Z,96.59
2017-12-27T00:07:27.103Z,97.25
2017-12-27T00:08:27.079Z,97.25
2017-12-27T00:09:27.052Z,96.69
2017-12-27T00:10:27.027Z,96.88
2017-12-27T00:11:27.001Z,97.35
2017-12-27T00:12:26.974Z,97.35
2017-12-27T00:13:26.947Z,97.63
2017-12-27T00:14:26.921Z,96.97
2017-12-27T00:15:26.895Z,97.54
2017-12-27T00:16:26.869Z,96.97
2017-12-27T00:17:26.843Z,97.06
2017-12-27T00:18:26.817Z,96.78
2017-12-27T00:19:26.791Z,97.44
2017-12-27T00:20:26.766Z,97.63
2017-12-27T00:21:26.738Z,97.63
2017-12-27T00:22:26.712Z,97.06
2017-12-27T00:23:26.688Z,97.54
2017-12-27T00:24:26.662Z,97.63
2017-12-27T00:25:26.634Z,97.44
2017-12-27T00:26:26.608Z,97.44
2017-12-27T00:27:26.583Z,97.54
2017-12-27T00:28:26.556Z,97.44
2017-12-27T00:29:26.530Z,97.63
2017-12-27T00:30:26.505Z,97.54
2017-12-27T00:31:26.478Z,98.39
2017-12-27T00:32:26.454Z,97.73
2017-12-27T00:33:26.425Z,97.54
2017-12-27T00:34:26.400Z,97.73
2017-12-27T00:35:26.374Z,97.54
2017-12-27T00:36:26.347Z,97.63
2017-12-27T00:37:26.321Z,97.92
2017-12-27T00:38:26.445Z,97.73
2017-12-27T00:39:26.268Z,97.54
2017-12-27T00:40:26.244Z,97.63
2017-12-27T00:41:26.217Z,97.35
2017-12-27T00:42:26.190Z,97.82
2017-12-27T00:43:26.165Z,97.73
2017-12-27T00:44:26.140Z,97.82
2017-12-27T00:45:26.111Z,97.35
2017-12-27T00:46:26.087Z,97.63
2017-12-27T00:47:26.060Z,97.35
2017-12-27T00:48:26.034Z,97.63
2017-12-27T00:49:26.008Z,97.63
2017-12-27T00:50:25.982Z,97.54
2017-12-27T00:51:25.956Z,97.49
2017-12-27T00:52:25.929Z,97.54
2017-12-27T00:53:25.904Z,97.49
2017-12-27T00:54:25.878Z,97.54
2017-12-27T00:55:25.958Z,97.63
2017-12-27T00:56:25.826Z,97.44
2017-12-27T00:57:25.800Z,97.73
2017-12-27T00:58:25.773Z,97.82
2017-12-27T00:59:25.747Z,97.58
2017-12-27T01:00:25.721Z,97.92
2017-12-27T01:01:25.695Z,97.54
2017-12-27T01:02:25.919Z,97.77
2017-12-27T01:03:25.643Z,98.34
2017-12-27T01:04:25.618Z,98.06
2017-12-27T01:05:25.591Z,98.34
2017-12-27T01:06:25.565Z,98.25
2017-12-27T01:07:25.541Z,97.96
2017-12-27T01:08:25.514Z,97.96
2017-12-27T01:09:25.487Z,98.53
2017-12-27T01:10:25.465Z,98.53
2017-12-27T01:11:25.436Z,98.34
2017-12-27T01:12:25.410Z,98.39
2017-12-27T01:13:25.385Z,98.01
2017-12-27T01:14:25.359Z,98.30
2017-12-27T01:15:25.334Z,98.30
2017-12-27T01:16:25.307Z,98.39
2017-12-27T01:17:25.281Z,98.39
2017-12-27T01:18:25.255Z,97.92
2017-12-27T01:19:25.231Z,98.30
2017-12-27T01:20:25.205Z,97.92
2017-12-27T01:21:25.178Z,98.11
2017-12-27T01:22:25.303Z,98.30
2017-12-27T01:23:25.127Z,98.49
2017-12-27T01:24:25.102Z,97.63
2017-12-27T01:25:25.084Z,97.54
2017-12-27T01:26:25.054Z,97.73
2017-12-27T01:27:25.025Z,97.35
2017-12-27T01:28:25.001Z,97.92
2017-12-27T01:29:24.975Z,97.63
2017-12-27T01:30:24.949Z,97.44
2017-12-27T01:31:24.924Z,97.63
2017-12-27T01:32:24.900Z,97.35
2017-12-27T01:33:24.872Z,96.78
2017-12-27T01:34:24.847Z,96.88
2017-12-27T01:35:24.822Z,97.16
2017-12-27T01:36:24.798Z,97.06
2017-12-27T01:37:24.769Z,96.97
2017-12-27T01:38:24.744Z,96.97
2017-12-27T01:39:24.721Z,97.06
2017-12-27T01:40:24.694Z,97.16
2017-12-27T01:41:24.667Z,97.16
2017-12-27T01:42:24.643Z,97.16
2017-12-27T01:43:24.617Z,96.78
2017-12-27T01:44:24.592Z,96.69
2017-12-27T01:45:24.565Z,97.16
2017-12-27T01:46:24.540Z,96.97
2017-12-27T01:47:24.514Z,96.50
2017-12-27T01:48:25.441Z,96.31
2017-12-27T01:49:24.464Z,96.50
2017-12-27T01:50:24.439Z,96.50
2017-12-27T01:51:24.418Z,96.02
2017-12-27T01:52:24.387Z,96.97
2017-12-27T01:53:24.362Z,96.50
2017-12-27T01:54:24.336Z,96.12
2017-12-27T01:55:24.312Z,96.40
2017-12-27T01:56:24.284Z,96.59
2017-12-27T01:57:24.259Z,96.31
2017-12-27T01:58:24.234Z,96.12
2017-12-27T01:59:24.210Z,96.50
2017-12-27T02:00:24.184Z,96.12
2017-12-27T02:01:24.158Z,96.31
2017-12-27T02:02:24.381Z,96.50
2017-12-27T02:03:24.105Z,96.50
2017-12-27T02:04:24.081Z,96.02
2017-12-27T02:05:24.054Z,97.25
2017-12-27T02:06:24.029Z,96.40
2017-12-27T02:07:24.004Z,96.97
2017-12-27T02:08:23.979Z,96.97
2017-12-27T02:09:23.951Z,96.78
2017-12-27T02:10:23.926Z,97.06
2017-12-27T02:11:23.902Z,96.59
2017-12-27T02:12:23.876Z,97.06
2017-12-27T02:13:23.850Z,96.97
2017-12-27T02:14:23.825Z,97.06
2017-12-27T02:15:23.798Z,97.06
2017-12-27T02:16:23.774Z,97.25
2017-12-27T02:17:23.747Z,97.16
2017-12-27T02:18:23.722Z,97.16
2017-12-27T02:19:23.696Z,97.25
2017-12-27T02:20:23.677Z,96.69
2017-12-27T02:21:23.643Z,96.88
2017-12-27T02:22:23.618Z,96.97
2017-12-27T02:23:23.593Z,96.88
2017-12-27T02:24:23.568Z,96.97
2017-12-27T02:25:23.541Z,97.06
2017-12-27T02:26:23.516Z,97.25
2017-12-27T02:27:23.492Z,96.97
2017-12-27T02:28:23.464Z,97.16
2017-12-27T02:29:23.439Z,97.25
2017-12-27T02:30:23.413Z,97.35
2017-12-27T02:31:23.388Z,97.16
2017-12-27T02:32:23.363Z,96.59
2017-12-27T02:33:23.336Z,97.25
2017-12-27T02:34:23.311Z,96.88
2017-12-27T02:35:23.286Z,96.69
2017-12-27T02:36:23.259Z,96.69
2017-12-27T02:37:23.232Z,96.78
2017-12-27T02:38:23.206Z,96.88
2017-12-27T02:39:23.183Z,96.59
2017-12-27T02:40:23.157Z,96.78
2017-12-27T02:41:23.380Z,97.35
2017-12-27T02:42:23.104Z,96.88
2017-12-27T02:43:23.078Z,96.69
2017-12-27T02:44:23.053Z,97.16
2017-12-27T02:45:23.026Z,96.78
2017-12-27T02:46:23.001Z,96.88
2017-12-27T02:47:22.975Z,97.25
2017-12-27T02:48:22.948Z,97.25
2017-12-27T02:49:22.923Z,97.16
2017-12-27T02:50:22.897Z,97.16
2017-12-27T02:51:22.872Z,96.59
2017-12-27T02:52:22.847Z,96.69
2017-12-27T02:53:22.819Z,96.88
2017-12-27T02:54:22.794Z,96.78
2017-12-27T02:55:22.769Z,96.78
2017-12-27T02:56:22.743Z,97.25
2017-12-27T02:57:22.718Z,96.97
2017-12-27T02:58:22.691Z,97.06
2017-12-27T02:59:22.664Z,96.97
2017-12-27T03:00:22.790Z,96.97
2017-12-27T03:01:22.616Z,97.06
2017-12-27T03:02:22.587Z,97.06
2017-12-27T03:03:22.561Z,97.06
2017-12-27T03:04:22.535Z,97.44
2017-12-27T03:05:22.509Z,97.54
2017-12-27T03:06:22.483Z,97.44
2017-12-27T03:07:22.457Z,97.25
2017-12-27T03:08:22.431Z,97.82
2017-12-27T03:09:22.405Z,97.30
2017-12-27T03:10:22.380Z,97.54
2017-12-27T03:11:22.353Z,97.54
2017-12-27T03:12:22.330Z,97.25
2017-12-27T03:13:22.302Z,97.35
2017-12-27T03:14:22.276Z,97.30
2017-12-27T03:15:22.249Z,97.82
2017-12-27T03:16:22.473Z,97.30
2017-12-27T03:17:22.195Z,97.30
2017-12-27T03:18:22.171Z,97.63
2017-12-27T03:19:22.151Z,97.35
2017-12-27T03:20:22.118Z,97.63
2017-12-27T03:21:22.091Z,97.06
2017-12-27T03:22:22.065Z,97.68
2017-12-27T03:23:22.041Z,97.54
2017-12-27T03:24:22.015Z,97.63
2017-12-27T03:25:21.987Z,97.06
2017-12-27T03:26:21.962Z,96.92
2017-12-27T03:27:21.935Z,96.83
2017-12-27T03:28:21.909Z,97.35
2017-12-27T03:29:21.884Z,96.83
2017-12-27T03:30:21.858Z,97.06
2017-12-27T03:31:21.831Z,96.64
2017-12-27T03:32:21.804Z,96.97
2017-12-27T03:33:21.879Z,97.30
2017-12-27T03:34:21.752Z,97.44
2017-12-27T03:35:21.727Z,97.63
2017-12-27T03:36:21.701Z,96.97
2017-12-27T03:37:21.674Z,97.35
2017-12-27T03:38:21.647Z,97.30
2017-12-27T03:39:21.621Z,97.54
2017-12-27T03:40:21.595Z,97.39
2017-12-27T03:41:21.569Z,97.73
2017-12-27T03:42:21.544Z,97.63
2017-12-27T03:43:21.517Z,97.30
2017-12-27T03:44:21.491Z,97.58
2017-12-27T03:45:21.466Z,97.63
2017-12-27T03:46:21.589Z,97.54
2017-12-27T03:47:21.413Z,96.78
2017-12-27T03:48:21.388Z,97.35
2017-12-27T03:49:21.360Z,97.82
2017-12-27T03:50:21.334Z,97.44
2017-12-27T03:51:21.310Z,97.44
2017-12-27T03:52:21.284Z,96.78
2017-12-27T03:53:21.258Z,96.97
2017-12-27T03:54:21.232Z,96.78
2017-12-27T03:55:21.205Z,97.63
2017-12-27T03:56:21.179Z,97.54
2017-12-27T03:57:21.153Z,97.54
2017-12-27T03:58:21.128Z,97.54
2017-12-27T03:59:21.102Z,97.44
2017-12-27T04:00:21.076Z,97.63
2017-12-27T04:01:21.049Z,97.35
2017-12-27T04:02:21.023Z,97.35
2017-12-27T04:03:20.998Z,97.63
2017-12-27T04:04:20.972Z,97.54
2017-12-27T04:05:20.946Z,97.82
2017-12-27T04:06:20.919Z,97.35
2017-12-27T04:07:20.893Z,97.63
2017-12-27T04:08:20.873Z,96.78
2017-12-27T04:09:20.840Z,96.78
2017-12-27T04:10:20.816Z,97.54
2017-12-27T04:11:20.790Z,97.30
2017-12-27T04:12:20.769Z,97.35
2017-12-27T04:13:20.737Z,97.54
2017-12-27T04:14:20.711Z,97.35
2017-12-27T04:15:20.684Z,97.35
2017-12-27T04:16:20.661Z,97.35
2017-12-27T04:17:20.632Z,97.63
2017-12-27T04:18:20.607Z,97.82
2017-12-27T04:19:20.579Z,96.78
2017-12-27T04:20:20.553Z,97.44
2017-12-27T04:21:20.527Z,96.83
2017-12-27T04:22:20.501Z,97.30
2017-12-27T04:23:20.476Z,97.30
2017-12-27T04:24:20.448Z,97.58
2017-12-27T04:25:20.422Z,97.30
2017-12-27T04:26:20.496Z,97.58
2017-12-27T04:27:20.370Z,97.58
2017-12-27T04:28:20.344Z,97.77
2017-12-27T04:29:20.317Z,97.87
2017-12-27T04:30:20.294Z,97.39
2017-12-27T04:31:20.264Z,97.87
2017-12-27T04:32:20.240Z,97.77
2017-12-27T04:33:20.212Z,97.58
2017-12-27T04:34:20.185Z,98.44
2017-12-27T04:35:20.160Z,98.44
2017-12-27T04:36:20.133Z,98.25
2017-12-27T04:37:20.107Z,98.15
2017-12-27T04:38:20.086Z,98.06
2017-12-27T04:39:20.055Z,98.06
2017-12-27T04:40:20.029Z,97.96
2017-12-27T04:41:20.003Z,98.44
2017-12-27T04:42:19.975Z,98.15
2017-12-27T04:43:19.950Z,98.34
2017-12-27T04:44:19.923Z,98.53
2017-12-27T04:45:19.897Z,98.53
2017-12-27T04:46:19.870Z,97.77
2017-12-27T04:47:19.945Z,98.15
2017-12-27T04:48:19.819Z,98.15
2017-12-27T04:49:19.796Z,98.15
2017-12-27T04:50:19.765Z,98.15
2017-12-27T04:51:19.740Z,97.77
2017-12-27T04:52:19.722Z,98.53
2017-12-27T04:53:19.687Z,98.15
2017-12-27T04:54:19.660Z,98.34
2017-12-27T04:55:19.634Z,98.06
2017-12-27T04:56:19.608Z,98.06
2017-12-27T04:57:19.581Z,98.15
2017-12-27T04:58:19.556Z,98.06
2017-12-27T04:59:19.530Z,98.25
2017-12-27T05:00:19.507Z,98.25
2017-12-27T05:01:19.475Z,98.34
2017-12-27T05:02:19.451Z,98.06
2017-12-27T05:03:19.425Z,98.34
2017-12-27T05:04:19.399Z,98.34
2017-12-27T05:05:19.371Z,98.06
2017-12-27T05:06:19.345Z,98.15
2017-12-27T05:07:19.318Z,98.25
2017-12-27T05:08:19.294Z,98.39
2017-12-27T05:09:19.267Z,98.44
2017-12-27T05:10:19.240Z,98.01
2017-12-27T05:11:19.214Z,98.25
2017-12-27T05:12:19.187Z,98.06
2017-12-27T05:13:19.161Z,97.63
2017-12-27T05:14:19.135Z,97.44
2017-12-27T05:15:19.109Z,97.49
2017-12-27T05:16:19.082Z,97.73
2017-12-27T05:17:19.056Z,97.82
2017-12-27T05:18:19.029Z,97.35
2017-12-27T05:19:19.005Z,97.63
2017-12-27T05:20:18.978Z,97.63
2017-12-27T05:21:18.952Z,97.16
2017-12-27T05:22:18.925Z,97.35
2017-12-27T05:23:19.148Z,97.54
2017-12-27T05:24:18.872Z,97.25
2017-12-27T05:25:18.846Z,97.73
2017-12-27T05:26:18.820Z,97.35
2017-12-27T05:27:18.794Z,97.16
2017-12-27T05:28:18.919Z,97.16
2017-12-27T05:29:18.740Z,97.06
2017-12-27T05:30:18.715Z,96.88
2017-12-27T05:31:18.688Z,97.16
2017-12-27T05:32:18.665Z,97.16
2017-12-27T05:33:18.636Z,96.88
2017-12-27T05:34:18.611Z,96.88
2017-12-27T05:35:18.584Z,96.97
2017-12-27T05:36:18.559Z,96.88
2017-12-27T05:37:18.535Z,96.78
2017-12-27T05:38:18.555Z,96.97
2017-12-27T05:39:18.480Z,96.97
2017-12-27T05:40:18.453Z,97.16
2017-12-27T05:41:18.427Z,96.78
2017-12-27T05:42:18.400Z,96.97
2017-12-27T05:43:18.375Z,97.16
2017-12-27T05:44:18.349Z,96.78
2017-12-27T05:45:18.322Z,96.12
2017-12-27T05:46:18.295Z,96.59
2017-12-27T05:47:18.269Z,96.31
2017-12-27T05:48:19.046Z,96.31
2017-12-27T05:49:18.218Z,96.50
2017-12-27T05:50:18.192Z,96.50
2017-12-27T05:51:18.165Z,96.50
2017-12-27T05:52:18.140Z,96.21
2017-12-27T05:53:18.112Z,96.50
2017-12-27T05:54:18.087Z,96.40
2017-12-27T05:55:18.060Z,96.50
2017-12-27T05:56:18.037Z,96.40
2017-12-27T05:57:18.008Z,96.59
2017-12-27T05:58:18.133Z,96.59
2017-12-27T05:59:17.957Z,96.12
2017-12-27T06:00:17.930Z,96.40
2017-12-27T06:01:17.903Z,96.59
2017-12-27T06:02:17.877Z,96.12
2017-12-27T06:03:17.852Z,96.31
2017-12-27T06:04:17.826Z,96.50
2017-12-27T06:05:17.799Z,96.12
2017-12-27T06:06:17.773Z,96.31
2017-12-27T06:07:17.746Z,96.31
2017-12-27T06:08:17.722Z,96.12
2017-12-27T06:09:17.695Z,96.40
2017-12-27T06:10:17.668Z,96.31
2017-12-27T06:11:17.644Z,96.50
2017-12-27T06:12:17.618Z,96.59
2017-12-27T06:13:17.591Z,96.50
2017-12-27T06:14:17.564Z,96.50
2017-12-27T06:15:17.538Z,96.40
2017-12-27T06:16:17.513Z,96.50
2017-12-27T06:17:17.485Z,96.31
2017-12-27T06:18:17.461Z,96.31
2017-12-27T06:19:17.433Z,96.59
2017-12-27T06:20:17.408Z,96.31
2017-12-27T06:21:17.382Z,96.59
2017-12-27T06:22:17.357Z,96.59
2017-12-27T06:23:17.329Z,96.40
2017-12-27T06:24:17.303Z,96.59
2017-12-27T06:25:17.277Z,96.59
2017-12-27T06:26:17.251Z,96.31
2017-12-27T06:27:17.226Z,96.59
2017-12-27T06:28:17.205Z,96.59
2017-12-27T06:29:17.190Z,96.50
2017-12-27T06:30:17.147Z,95.64
2017-12-27T06:31:17.121Z,95.83
2017-12-27T06:32:17.096Z,95.93
2017-12-27T06:33:17.070Z,95.83
2017-12-27T06:34:17.044Z,95.83
2017-12-27T06:35:17.018Z,96.02
2017-12-27T06:36:16.994Z,96.12
2017-12-27T06:37:17.765Z,95.93
2017-12-27T06:38:16.940Z,96.40
2017-12-27T06:39:16.913Z,95.93
2017-12-27T06:40:16.888Z,96.12
2017-12-27T06:41:16.862Z,95.83
2017-12-27T06:42:16.835Z,96.12
2017-12-27T06:43:16.810Z,95.93
2017-12-27T06:44:16.787Z,95.93
2017-12-27T06:45:16.757Z,95.93
2017-12-27T06:46:16.732Z,95.93
2017-12-27T06:47:16.706Z,95.93
2017-12-27T06:48:16.684Z,96.12
2017-12-27T06:49:16.653Z,96.12
2017-12-27T06:50:16.628Z,96.02
2017-12-27T06:51:16.602Z,96.12
2017-12-27T06:52:16.576Z,95.55
2017-12-27T06:53:16.551Z,96.12
2017-12-27T06:54:16.525Z,96.12
2017-12-27T06:55:16.500Z,95.36
2017-12-27T06:56:16.474Z,95.55
2017-12-27T06:57:16.448Z,95.55
2017-12-27T06:58:16.421Z,95.64
2017-12-27T06:59:16.395Z,95.64
2017-12-27T07:00:16.372Z,95.74
2017-12-27T07:01:16.344Z,95.55
2017-12-27T07:02:16.317Z,95.45
2017-12-27T07:03:16.292Z,95.55
2017-12-27T07:04:16.267Z,95.55
2017-12-27T07:05:16.240Z,95.36
2017-12-27T07:06:16.214Z,95.36
2017-12-27T07:07:16.189Z,95.64
2017-12-27T07:08:16.163Z,95.36
2017-12-27T07:09:16.136Z,95.17
2017-12-27T07:10:16.110Z,95.17
2017-12-27T07:11:16.085Z,95.26
2017-12-27T07:12:16.210Z,95.17
2017-12-27T07:13:16.032Z,95.17
2017-12-27T07:14:16.008Z,94.70
2017-12-27T07:15:15.984Z,94.89
2017-12-27T07:16:15.956Z,94.70
2017-12-27T07:17:15.929Z,94.79
2017-12-27T07:18:15.904Z,94.70
2017-12-27T07:19:15.884Z,94.60
2017-12-27T07:20:15.852Z,95.17
2017-12-27T07:21:15.825Z,94.79
2017-12-27T07:22:15.799Z,94.60
2017-12-27T07:23:15.774Z,93.84
2017-12-27T07:24:15.751Z,94.42
2017-12-27T07:25:15.721Z,94.32
2017-12-27T07:26:15.696Z,94.60
2017-12-27T07:27:15.672Z,94.60
2017-12-27T07:28:15.646Z,94.51
2017-12-27T07:29:15.619Z,94.42
2017-12-27T07:30:15.593Z,93.94
2017-12-27T07:31:15.567Z,94.23
2017-12-27T07:32:15.542Z,93.56
2017-12-27T07:33:15.515Z,94.18
2017-12-27T07:34:15.490Z,94.04
2017-12-27T07:35:15.463Z,93.56
2017-12-27T07:36:15.437Z,93.46
2017-12-27T07:37:15.412Z,93.56
2017-12-27T07:38:15.387Z,92.80
2017-12-27T07:39:15.361Z,93.08
2017-12-27T07:40:15.338Z,93.27
2017-12-27T07:41:15.309Z,93.56
2017-12-27T07:42:15.284Z,93.27
2017-12-27T07:43:15.258Z,93.46
2017-12-27T07:44:15.231Z,92.90
2017-12-27T07:45:15.205Z,92.90
2017-12-27T07:46:15.180Z,92.94
2017-12-27T07:47:15.154Z,92.94
2017-12-27T07:48:15.128Z,92.71
2017-12-27T07:49:15.104Z,92.57
2017-12-27T07:50:15.076Z,93.04
2017-12-27T07:51:15.050Z,93.04
2017-12-27T07:52:15.026Z,93.04
2017-12-27T07:53:14.997Z,92.90
2017-12-27T07:54:14.973Z,92.76
2017-12-27T07:55:14.946Z,92.76
2017-12-27T07:56:14.921Z,92.90
2017-12-27T07:57:14.896Z,92.47
2017-12-27T07:58:14.869Z,92.90
2017-12-27T07:59:14.844Z,92.90
2017-12-27T08:00:14.819Z,92.47
2017-12-27T08:01:14.792Z,92.57
2017-12-27T08:02:14.766Z,92.90
2017-12-27T08:03:14.741Z,92.71
2017-12-27T08:04:14.715Z,93.23
2017-12-27T08:05:14.689Z,92.52
2017-12-27T08:06:14.662Z,92.71
2017-12-27T08:07:14.637Z,92.33
2017-12-27T08:08:14.612Z,92.66
2017-12-27T08:09:14.584Z,92.80
2017-12-27T08:10:14.559Z,92.85
2017-12-27T08:11:14.538Z,92.00
2017-12-27T08:12:14.509Z,92.19
2017-12-27T08:13:14.481Z,92.57
2017-12-27T08:14:14.457Z,92.33
2017-12-27T08:15:14.432Z,91.90
2017-12-27T08:16:14.505Z,91.90
2017-12-27T08:17:14.379Z,91.90
2017-12-27T08:18:14.354Z,91.90
2017-12-27T08:19:14.328Z,91.90
2017-12-27T08:20:14.303Z,91.62
2017-12-27T08:21:14.275Z,91.71
2017-12-27T08:22:14.250Z,92.09
2017-12-27T08:23:14.226Z,91.71
2017-12-27T08:24:14.200Z,91.71
2017-12-27T08:25:14.174Z,91.76
2017-12-27T08:26:14.147Z,91.43
2017-12-27T08:27:14.273Z,91.62
2017-12-27T08:28:14.096Z,92.19
2017-12-27T08:29:14.070Z,91.57
2017-12-27T08:30:14.045Z,91.86
2017-12-27T08:31:14.019Z,92.24
2017-12-27T08:32:13.997Z,92.00
2017-12-27T08:33:13.970Z,91.90
2017-12-27T08:34:13.943Z,92.19
2017-12-27T08:35:13.917Z,92.05
2017-12-27T08:36:13.893Z,91.81
2017-12-27T08:37:13.865Z,92.28
2017-12-27T08:38:13.841Z,92.71
2017-12-27T08:39:13.815Z,92.71
2017-12-27T08:40:13.789Z,92.14
2017-12-27T08:41:13.764Z,92.71
2017-12-27T08:42:13.738Z,92.57
2017-12-27T08:43:13.712Z,92.71
2017-12-27T08:44:13.689Z,92.71
2017-12-27T08:45:13.661Z,92.90
2017-12-27T08:46:13.640Z,92.71
2017-12-27T08:47:13.611Z,92.90
2017-12-27T08:48:13.587Z,92.19
2017-12-27T08:49:13.559Z,92.52
2017-12-27T08:50:13.534Z,93.08
2017-12-27T08:51:13.509Z,92.90
2017-12-27T08:52:13.485Z,92.80
2017-12-27T08:53:13.459Z,92.61
2017-12-27T08:54:13.433Z,92.99
2017-12-27T08:55:13.408Z,92.76
2017-12-27T08:56:13.383Z,92.99
2017-12-27T08:57:13.357Z,92.71
2017-12-27T08:58:13.333Z,92.57
2017-12-27T08:59:13.308Z,92.71
2017-12-27T09:00:13.433Z,92.61
2017-12-27T09:01:13.256Z,92.76
2017-12-27T09:02:13.235Z,92.33
2017-12-27T09:03:13.206Z,92.99
2017-12-27T09:04:13.182Z,92.52
2017-12-27T09:05:13.156Z,92.94
2017-12-27T09:06:13.132Z,92.71
2017-12-27T09:07:13.106Z,92.76
2017-12-27T09:08:13.081Z,92.76
2017-12-27T09:09:13.057Z,92.85
2017-12-27T09:10:13.032Z,92.76
2017-12-27T09:11:13.007Z,92.57
2017-12-27T09:12:12.984Z,92.47
2017-12-27T09:13:12.955Z,92.66
2017-12-27T09:14:12.931Z,92.28
2017-12-27T09:15:12.907Z,92.57
2017-12-27T09:16:12.881Z,92.19
2017-12-27T09:17:12.857Z,92.19
2017-12-27T09:18:12.832Z,91.90
2017-12-27T09:19:12.806Z,91.90
2017-12-27T09:20:12.782Z,92.19
2017-12-27T09:21:12.757Z,92.24
2017-12-27T09:22:12.731Z,92.76
2017-12-27T09:23:12.706Z,92.09
2017-12-27T09:24:12.681Z,92.09
2017-12-27T09:25:12.657Z,91.81
2017-12-27T09:26:12.633Z,91.71
2017-12-27T09:27:12.606Z,91.90
2017-12-27T09:28:12.583Z,92.28
2017-12-27T09:29:12.556Z,91.90
2017-12-27T09:30:12.532Z,92.57
2017-12-27T09:31:12.506Z,92.94
2017-12-27T09:32:12.481Z,92.19
2017-12-27T09:33:12.458Z,92.00
2017-12-27T09:34:12.430Z,92.66
2017-12-27T09:35:12.406Z,92.66
2017-12-27T09:36:12.387Z,92.76
2017-12-27T09:37:12.355Z,91.81
2017-12-27T09:38:12.332Z,92.38
2017-12-27T09:39:12.306Z,92.00
2017-12-27T09:40:12.282Z,92.00
2017-12-27T09:41:12.258Z,91.81
2017-12-27T09:42:12.232Z,92.09
2017-12-27T09:43:12.208Z,91.52
2017-12-27T09:44:12.189Z,91.90
2017-12-27T09:45:12.960Z,91.81
2017-12-27T09:46:12.133Z,91.52
2017-12-27T09:47:12.109Z,91.52
2017-12-27T09:48:12.084Z,91.43
2017-12-27T09:49:12.064Z,91.62
2017-12-27T09:50:12.836Z,92.00
2017-12-27T09:51:12.011Z,91.05
2017-12-27T09:52:11.985Z,91.33
2017-12-27T09:53:11.961Z,91.81
2017-12-27T09:54:11.935Z,91.71
2017-12-27T09:55:12.012Z,91.71
2017-12-27T09:56:11.888Z,90.95
2017-12-27T09:57:11.862Z,91.14
2017-12-27T09:58:11.838Z,91.05
2017-12-27T09:59:11.814Z,90.86
2017-12-27T10:00:11.788Z,91.14
2017-12-27T10:01:11.762Z,91.62
2017-12-27T10:02:11.738Z,91.71
2017-12-27T10:03:11.714Z,90.77
2017-12-27T10:04:11.689Z,91.62
2017-12-27T10:05:11.665Z,91.14
2017-12-27T10:06:11.640Z,91.62
2017-12-27T10:07:11.615Z,91.71
2017-12-27T10:08:11.592Z,92.09
2017-12-27T10:09:11.570Z,91.62
2017-12-27T10:10:11.642Z,91.81
2017-12-27T10:11:11.518Z,91.43
2017-12-27T10:12:11.495Z,92.28
2017-12-27T10:13:11.468Z,92.76
2017-12-27T10:14:11.444Z,91.43
2017-12-27T10:15:11.419Z,92.09
2017-12-27T10:16:11.396Z,92.19
2017-12-27T10:17:11.368Z,92.66
2017-12-27T10:18:11.344Z,92.28
2017-12-27T10:19:11.320Z,92.85
2017-12-27T10:20:11.696Z,92.76
2017-12-27T10:21:11.270Z,92.94
2017-12-27T10:22:11.275Z,92.57
2017-12-27T10:23:11.220Z,92.85
2017-12-27T10:24:11.195Z,92.94
2017-12-27T10:25:11.170Z,92.19
2017-12-27T10:26:11.144Z,92.76
2017-12-27T10:27:11.120Z,92.76
2017-12-27T10:28:11.095Z,92.76
2017-12-27T10:29:11.069Z,92.66
2017-12-27T10:30:11.045Z,92.57
2017-12-27T10:31:11.020Z,92.57
2017-12-27T10:32:10.996Z,92.28
2017-12-27T10:33:10.969Z,92.19
2017-12-27T10:34:10.945Z,92.28
2017-12-27T10:35:10.919Z,92.09
2017-12-27T10:36:10.894Z,91.90
2017-12-27T10:37:10.875Z,92.76
2017-12-27T10:38:10.849Z,92.57
2017-12-27T10:39:10.819Z,92.19
2017-12-27T10:40:10.794Z,92.09
2017-12-27T10:41:10.768Z,92.09
2017-12-27T10:42:10.895Z,92.09
2017-12-27T10:43:10.722Z,92.76
2017-12-27T10:44:10.694Z,93.04
2017-12-27T10:45:10.670Z,91.62
2017-12-27T10:46:10.644Z,92.00
2017-12-27T10:47:10.620Z,91.81
2017-12-27T10:48:10.596Z,92.76
2017-12-27T10:49:10.570Z,92.66
2017-12-27T10:50:10.546Z,92.28
2017-12-27T10:51:10.521Z,92.47
2017-12-27T10:52:10.748Z,91.90
2017-12-27T10:53:10.471Z,92.04
2017-12-27T10:54:10.448Z,91.85
2017-12-27T10:55:10.422Z,91.95
2017-12-27T10:56:10.399Z,91.95
2017-12-27T10:57:10.375Z,91.95
2017-12-27T10:58:10.348Z,92.80
2017-12-27T10:59:10.325Z,92.61
2017-12-27T11:00:10.300Z,92.23
2017-12-27T11:01:10.275Z,93.37
2017-12-27T11:02:10.500Z,93.65
2017-12-27T11:03:10.227Z,92.71
2017-12-27T11:04:10.217Z,92.90
2017-12-27T11:05:10.178Z,93.65
2017-12-27T11:06:10.154Z,93.08
2017-12-27T11:07:10.130Z,92.61
2017-12-27T11:08:10.104Z,91.95
2017-12-27T11:09:10.080Z,91.57
2017-12-27T11:10:10.056Z,91.85
2017-12-27T11:11:10.032Z,92.04
2017-12-27T11:12:10.008Z,91.85
2017-12-27T11:13:10.783Z,91.95
2017-12-27T11:14:09.960Z,91.66
2017-12-27T11:15:09.939Z,91.47
2017-12-27T11:16:09.911Z,92.04
2017-12-27T11:17:09.937Z,91.85
2017-12-27T11:18:09.863Z,92.23
2017-12-27T11:19:09.989Z,92.04
2017-12-27T11:20:09.814Z,90.81
2017-12-27T11:21:09.789Z,91.00
2017-12-27T11:22:09.766Z,91.19
2017-12-27T11:23:09.743Z,90.72
2017-12-27T11:24:09.719Z,90.53
2017-12-27T11:25:09.697Z,89.96
2017-12-27T11:26:09.671Z,90.72
2017-12-27T11:27:09.646Z,90.24
2017-12-27T11:28:09.623Z,90.15
2017-12-27T11:29:09.598Z,90.24
2017-12-27T11:30:09.575Z,90.05
2017-12-27T11:31:09.551Z,89.86
2017-12-27T11:32:09.526Z,89.67
2017-12-27T11:33:09.502Z,89.11
2017-12-27T11:34:09.479Z,89.29
2017-12-27T11:35:09.704Z,89.96
2017-12-27T11:36:09.430Z,89.01
2017-12-27T11:37:09.405Z,88.92
2017-12-27T11:38:09.383Z,89.67
2017-12-27T11:39:09.358Z,89.11
2017-12-27T11:40:09.435Z,89.29
2017-12-27T11:41:09.310Z,89.77
2017-12-27T11:42:09.287Z,89.01
2017-12-27T11:43:09.263Z,89.20
2017-12-27T11:44:09.239Z,88.73
2017-12-27T11:45:10.016Z,88.92
2017-12-27T11:46:09.192Z,88.63
2017-12-27T11:47:09.167Z,88.73
2017-12-27T11:48:09.145Z,88.63
2017-12-27T11:49:09.119Z,88.63
2017-12-27T11:50:09.197Z,88.73
2017-12-27T11:51:09.072Z,88.73
2017-12-27T11:52:09.049Z,88.73
2017-12-27T11:53:09.025Z,88.92
2017-12-27T11:54:09.001Z,88.35
2017-12-27T11:55:08.977Z,89.48
2017-12-27T11:56:08.955Z,88.54
2017-12-27T11:57:08.930Z,88.73
2017-12-27T11:58:08.906Z,88.63
2017-12-27T11:59:08.882Z,88.54
2017-12-27T12:00:08.860Z,88.48
2017-12-27T12:01:08.836Z,88.77
2017-12-27T12:02:08.812Z,88.77
2017-12-27T12:03:08.789Z,88.58
2017-12-27T12:04:08.767Z,89.62
2017-12-27T12:05:08.740Z,89.43
2017-12-27T12:06:08.717Z,89.62
2017-12-27T12:07:08.694Z,89.62
2017-12-27T12:08:08.671Z,89.34
2017-12-27T12:09:08.646Z,89.62
2017-12-27T12:10:08.624Z,89.53
2017-12-27T12:11:08.849Z,90.00
2017-12-27T12:12:08.576Z,90.24
2017-12-27T12:13:08.551Z,90.67
2017-12-27T12:14:08.529Z,91.33
2017-12-27T12:15:08.505Z,90.62
2017-12-27T12:16:08.483Z,90.43
2017-12-27T12:17:08.457Z,90.53
2017-12-27T12:18:08.433Z,90.53
2017-12-27T12:19:08.409Z,90.05
2017-12-27T12:20:08.387Z,90.48
2017-12-27T12:21:08.362Z,89.58
2017-12-27T12:22:08.337Z,89.29
2017-12-27T12:23:08.313Z,90.05
2017-12-27T12:24:08.291Z,90.10
2017-12-27T12:25:08.265Z,90.24
2017-12-27T12:26:08.392Z,90.43
2017-12-27T12:27:08.218Z,90.29
2017-12-27T12:28:08.197Z,90.29
2017-12-27T12:29:08.169Z,90.48
2017-12-27T12:30:08.145Z,90.10
2017-12-27T12:31:08.123Z,90.29
2017-12-27T12:32:08.099Z,90.29
2017-12-27T12:33:08.075Z,90.29
2017-12-27T12:34:08.049Z,89.72
2017-12-27T12:35:08.028Z,89.62
2017-12-27T12:36:08.003Z,90.29
2017-12-27T12:37:08.780Z,89.72
2017-12-27T12:38:07.955Z,89.62
2017-12-27T12:39:07.933Z,89.25
2017-12-27T12:40:07.908Z,88.96
2017-12-27T12:41:07.883Z,88.96
2017-12-27T12:42:07.861Z,88.77
2017-12-27T12:43:07.837Z,88.77
2017-12-27T12:44:07.814Z,88.58
2017-12-27T12:45:07.792Z,88.96
2017-12-27T12:46:07.766Z,88.39
2017-12-27T12:47:07.742Z,88.96
2017-12-27T12:48:07.719Z,88.58
2017-12-27T12:49:07.694Z,88.58
2017-12-27T12:50:07.671Z,88.58
2017-12-27T12:51:07.651Z,88.48
2017-12-27T12:52:07.624Z,88.77